sensor_id;sensor_type;location;lat;lon;timestamp;P1;durP1;ratioP1;P2;durP2;ratioP2
75766;SDS011;64378;55.596;13.014;2023-03-23T00:00:51;7.00;;;2.20;;
75766;SDS011;64378;55.596;13.014;2023-03-23T00:03:16;6.70;;;2.10;;
75766;SDS011;64378;55.596;13.014;2023-03-23T00:05:42;7.07;;;2.30;;
75766;SDS011;64378;55.596;13.014;2023-03-23T00:08:14;7.40;;;2.50;;
75766;SDS011;64378;55.596;13.014;2023-03-23T00:10:40;6.05;;;2.25;;
75766;SDS011;64378;55.596;13.014;2023-03-23T00:13:06;6.83;;;2.40;;
75766;SDS011;64378;55.596;13.014;2023-03-23T00:15:31;6.73;;;2.60;;
75766;SDS011;64378;55.596;13.014;2023-03-23T00:17:58;8.73;;;2.20;;
75766;SDS011;64378;55.596;13.014;2023-03-23T00:20:31;6.65;;;1.90;;
75766;SDS011;64378;55.596;13.014;2023-03-23T00:23:04;6.50;;;2.63;;
75766;SDS011;64378;55.596;13.014;2023-03-23T00:25:31;6.38;;;2.33;;
75766;SDS011;64378;55.596;13.014;2023-03-23T00:27:57;7.80;;;2.37;;
75766;SDS011;64378;55.596;13.014;2023-03-23T00:30:22;7.17;;;2.50;;
75766;SDS011;64378;55.596;13.014;2023-03-23T00:32:48;6.78;;;2.50;;
75766;SDS011;64378;55.596;13.014;2023-03-23T00:35:13;6.63;;;2.43;;
75766;SDS011;64378;55.596;13.014;2023-03-23T00:37:39;6.43;;;2.40;;
75766;SDS011;64378;55.596;13.014;2023-03-23T00:40:05;7.80;;;2.63;;
75766;SDS011;64378;55.596;13.014;2023-03-23T00:42:34;6.55;;;2.25;;
75766;SDS011;64378;55.596;13.014;2023-03-23T00:45:02;6.78;;;2.70;;
75766;SDS011;64378;55.596;13.014;2023-03-23T00:47:35;7.07;;;2.75;;
75766;SDS011;64378;55.596;13.014;2023-03-23T00:50:03;8.82;;;3.00;;
75766;SDS011;64378;55.596;13.014;2023-03-23T00:52:30;7.35;;;3.10;;
75766;SDS011;64378;55.596;13.014;2023-03-23T00:54:55;8.20;;;2.90;;
75766;SDS011;64378;55.596;13.014;2023-03-23T00:57:21;7.27;;;2.67;;
75766;SDS011;64378;55.596;13.014;2023-03-23T00:59:49;8.75;;;3.20;;
75766;SDS011;64378;55.596;13.014;2023-03-23T01:02:16;6.63;;;2.90;;
75766;SDS011;64378;55.596;13.014;2023-03-23T01:04:41;7.47;;;3.05;;
75766;SDS011;64378;55.596;13.014;2023-03-23T01:07:09;6.95;;;2.88;;
75766;SDS011;64378;55.596;13.014;2023-03-23T01:09:37;8.63;;;2.65;;
75766;SDS011;64378;55.596;13.014;2023-03-23T01:12:04;7.22;;;2.92;;
75766;SDS011;64378;55.596;13.014;2023-03-23T01:14:30;6.72;;;2.50;;
75766;SDS011;64378;55.596;13.014;2023-03-23T01:16:56;6.72;;;3.00;;
75766;SDS011;64378;55.596;13.014;2023-03-23T01:19:21;8.70;;;3.23;;
75766;SDS011;64378;55.596;13.014;2023-03-23T01:21:47;7.63;;;3.08;;
75766;SDS011;64378;55.596;13.014;2023-03-23T01:24:12;6.33;;;2.40;;
75766;SDS011;64378;55.596;13.014;2023-03-23T01:26:38;6.00;;;2.43;;
75766;SDS011;64378;55.596;13.014;2023-03-23T01:29:03;6.00;;;2.57;;
75766;SDS011;64378;55.596;13.014;2023-03-23T01:31:29;7.00;;;2.50;;
75766;SDS011;64378;55.596;13.014;2023-03-23T01:33:54;7.57;;;2.80;;
75766;SDS011;64378;55.596;13.014;2023-03-23T01:36:22;6.80;;;2.72;;
75766;SDS011;64378;55.596;13.014;2023-03-23T01:38:51;7.38;;;2.70;;
75766;SDS011;64378;55.596;13.014;2023-03-23T01:41:17;8.17;;;2.73;;
75766;SDS011;64378;55.596;13.014;2023-03-23T01:43:57;6.60;;;2.55;;
75766;SDS011;64378;55.596;13.014;2023-03-23T01:46:33;6.53;;;2.60;;
75766;SDS011;64378;55.596;13.014;2023-03-23T01:49:10;7.03;;;2.63;;
75766;SDS011;64378;55.596;13.014;2023-03-23T01:51:41;7.60;;;2.88;;
75766;SDS011;64378;55.596;13.014;2023-03-23T01:54:13;7.13;;;2.70;;
75766;SDS011;64378;55.596;13.014;2023-03-23T01:56:48;7.93;;;2.65;;
75766;SDS011;64378;55.596;13.014;2023-03-23T01:59:17;6.18;;;2.38;;
75766;SDS011;64378;55.596;13.014;2023-03-23T02:01:44;6.63;;;2.70;;
75766;SDS011;64378;55.596;13.014;2023-03-23T02:04:14;6.30;;;2.22;;
75766;SDS011;64378;55.596;13.014;2023-03-23T02:06:41;7.03;;;2.53;;
75766;SDS011;64378;55.596;13.014;2023-03-23T02:09:09;6.07;;;2.58;;
75766;SDS011;64378;55.596;13.014;2023-03-23T02:11:38;6.97;;;2.33;;
75766;SDS011;64378;55.596;13.014;2023-03-23T02:14:04;6.35;;;2.15;;
75766;SDS011;64378;55.596;13.014;2023-03-23T02:21:59;5.57;;;2.20;;
75766;SDS011;64378;55.596;13.014;2023-03-23T02:44:22;6.63;;;2.40;;
75766;SDS011;64378;55.596;13.014;2023-03-23T02:46:52;7.60;;;2.40;;
75766;SDS011;64378;55.596;13.014;2023-03-23T02:49:19;6.80;;;2.50;;
75766;SDS011;64378;55.596;13.014;2023-03-23T02:51:47;5.93;;;2.50;;
75766;SDS011;64378;55.596;13.014;2023-03-23T02:54:14;8.35;;;3.10;;
75766;SDS011;64378;55.596;13.014;2023-03-23T02:56:41;6.73;;;2.70;;
75766;SDS011;64378;55.596;13.014;2023-03-23T02:59:08;7.80;;;2.22;;
75766;SDS011;64378;55.596;13.014;2023-03-23T03:04:01;6.40;;;2.55;;
75766;SDS011;64378;55.596;13.014;2023-03-23T03:06:36;7.70;;;2.80;;
75766;SDS011;64378;55.596;13.014;2023-03-23T03:09:14;6.82;;;2.47;;
75766;SDS011;64378;55.596;13.014;2023-03-23T03:12:04;7.70;;;2.90;;
75766;SDS011;64378;55.596;13.014;2023-03-23T03:14:41;6.80;;;2.70;;
75766;SDS011;64378;55.596;13.014;2023-03-23T03:17:23;7.00;;;2.60;;
75766;SDS011;64378;55.596;13.014;2023-03-23T03:19:50;6.60;;;2.83;;
75766;SDS011;64378;55.596;13.014;2023-03-23T03:22:22;6.87;;;2.60;;
75766;SDS011;64378;55.596;13.014;2023-03-23T03:24:53;7.03;;;2.50;;
75766;SDS011;64378;55.596;13.014;2023-03-23T03:27:22;7.32;;;3.03;;
75766;SDS011;64378;55.596;13.014;2023-03-23T03:29:49;7.90;;;2.77;;
75766;SDS011;64378;55.596;13.014;2023-03-23T03:32:20;6.93;;;2.65;;
75766;SDS011;64378;55.596;13.014;2023-03-23T03:34:49;6.80;;;2.78;;
75766;SDS011;64378;55.596;13.014;2023-03-23T03:37:15;6.23;;;2.50;;
75766;SDS011;64378;55.596;13.014;2023-03-23T03:39:41;6.65;;;2.60;;
75766;SDS011;64378;55.596;13.014;2023-03-23T03:42:06;7.37;;;2.70;;
75766;SDS011;64378;55.596;13.014;2023-03-23T03:44:32;7.07;;;2.90;;
75766;SDS011;64378;55.596;13.014;2023-03-23T03:46:58;6.88;;;2.75;;
75766;SDS011;64378;55.596;13.014;2023-03-23T03:49:23;7.03;;;2.50;;
75766;SDS011;64378;55.596;13.014;2023-03-23T03:51:50;6.20;;;2.20;;
75766;SDS011;64378;55.596;13.014;2023-03-23T03:54:16;6.20;;;2.60;;
75766;SDS011;64378;55.596;13.014;2023-03-23T03:56:41;7.00;;;2.73;;
75766;SDS011;64378;55.596;13.014;2023-03-23T03:59:07;7.43;;;2.90;;
75766;SDS011;64378;55.596;13.014;2023-03-23T04:01:34;6.70;;;2.83;;
75766;SDS011;64378;55.596;13.014;2023-03-23T04:04:03;5.82;;;2.13;;
75766;SDS011;64378;55.596;13.014;2023-03-23T04:06:31;8.93;;;2.47;;
75766;SDS011;64378;55.596;13.014;2023-03-23T04:08:58;6.45;;;2.30;;
75766;SDS011;64378;55.596;13.014;2023-03-23T04:11:24;6.40;;;2.50;;
75766;SDS011;64378;55.596;13.014;2023-03-23T04:13:51;6.65;;;2.58;;
75766;SDS011;64378;55.596;13.014;2023-03-23T04:16:16;5.67;;;2.27;;
75766;SDS011;64378;55.596;13.014;2023-03-23T04:18:42;6.50;;;2.35;;
75766;SDS011;64378;55.596;13.014;2023-03-23T04:21:08;6.90;;;2.60;;
75766;SDS011;64378;55.596;13.014;2023-03-23T04:23:34;6.60;;;2.20;;
75766;SDS011;64378;55.596;13.014;2023-03-23T04:26:00;6.82;;;2.15;;
75766;SDS011;64378;55.596;13.014;2023-03-23T04:28:28;6.75;;;2.60;;
75766;SDS011;64378;55.596;13.014;2023-03-23T04:30:54;6.35;;;2.42;;
75766;SDS011;64378;55.596;13.014;2023-03-23T04:33:21;6.20;;;2.50;;
75766;SDS011;64378;55.596;13.014;2023-03-23T04:35:50;7.00;;;2.63;;
75766;SDS011;64378;55.596;13.014;2023-03-23T04:38:18;6.80;;;2.58;;
75766;SDS011;64378;55.596;13.014;2023-03-23T04:40:46;6.00;;;2.60;;
75766;SDS011;64378;55.596;13.014;2023-03-23T04:43:16;8.43;;;2.72;;
75766;SDS011;64378;55.596;13.014;2023-03-23T04:45:46;6.60;;;2.53;;
75766;SDS011;64378;55.596;13.014;2023-03-23T04:48:16;7.00;;;2.83;;
75766;SDS011;64378;55.596;13.014;2023-03-23T04:50:42;6.90;;;2.70;;
75766;SDS011;64378;55.596;13.014;2023-03-23T04:53:08;6.83;;;2.50;;
75766;SDS011;64378;55.596;13.014;2023-03-23T04:55:35;6.50;;;2.47;;
75766;SDS011;64378;55.596;13.014;2023-03-23T04:58:01;6.35;;;2.45;;
75766;SDS011;64378;55.596;13.014;2023-03-23T05:00:31;6.85;;;2.63;;
75766;SDS011;64378;55.596;13.014;2023-03-23T05:02:58;7.00;;;2.30;;
75766;SDS011;64378;55.596;13.014;2023-03-23T05:05:24;6.60;;;2.70;;
75766;SDS011;64378;55.596;13.014;2023-03-23T05:07:50;7.05;;;2.60;;
75766;SDS011;64378;55.596;13.014;2023-03-23T05:10:16;6.63;;;2.70;;
75766;SDS011;64378;55.596;13.014;2023-03-23T05:12:42;7.70;;;2.90;;
75766;SDS011;64378;55.596;13.014;2023-03-23T05:15:08;6.50;;;2.70;;
75766;SDS011;64378;55.596;13.014;2023-03-23T05:17:35;6.97;;;2.95;;
75766;SDS011;64378;55.596;13.014;2023-03-23T05:20:02;7.90;;;2.90;;
75766;SDS011;64378;55.596;13.014;2023-03-23T05:22:32;7.95;;;2.92;;
75766;SDS011;64378;55.596;13.014;2023-03-23T05:24:58;6.40;;;2.40;;
75766;SDS011;64378;55.596;13.014;2023-03-23T05:27:24;6.82;;;2.72;;
75766;SDS011;64378;55.596;13.014;2023-03-23T05:29:52;6.80;;;2.40;;
75766;SDS011;64378;55.596;13.014;2023-03-23T05:32:18;6.50;;;2.53;;
75766;SDS011;64378;55.596;13.014;2023-03-23T05:34:45;7.07;;;2.60;;
75766;SDS011;64378;55.596;13.014;2023-03-23T05:37:11;6.33;;;2.60;;
75766;SDS011;64378;55.596;13.014;2023-03-23T05:39:37;6.20;;;2.47;;
75766;SDS011;64378;55.596;13.014;2023-03-23T05:42:03;6.87;;;2.40;;
75766;SDS011;64378;55.596;13.014;2023-03-23T05:44:29;6.40;;;2.40;;
75766;SDS011;64378;55.596;13.014;2023-03-23T05:46:55;5.68;;;2.25;;
75766;SDS011;64378;55.596;13.014;2023-03-23T05:49:20;6.83;;;2.10;;
75766;SDS011;64378;55.596;13.014;2023-03-23T05:51:46;6.25;;;2.10;;
75766;SDS011;64378;55.596;13.014;2023-03-23T05:54:13;6.07;;;2.15;;
75766;SDS011;64378;55.596;13.014;2023-03-23T05:56:39;6.10;;;2.33;;
75766;SDS011;64378;55.596;13.014;2023-03-23T05:59:05;5.13;;;1.90;;
75766;SDS011;64378;55.596;13.014;2023-03-23T06:01:31;4.35;;;1.63;;
75766;SDS011;64378;55.596;13.014;2023-03-23T06:03:56;6.47;;;1.98;;
75766;SDS011;64378;55.596;13.014;2023-03-23T06:06:27;8.20;;;2.00;;
75766;SDS011;64378;55.596;13.014;2023-03-23T06:08:57;6.45;;;1.90;;
75766;SDS011;64378;55.596;13.014;2023-03-23T06:11:24;5.80;;;1.70;;
75766;SDS011;64378;55.596;13.014;2023-03-23T06:13:51;5.57;;;1.80;;
75766;SDS011;64378;55.596;13.014;2023-03-23T06:16:17;5.93;;;2.00;;
75766;SDS011;64378;55.596;13.014;2023-03-23T06:18:43;6.72;;;2.10;;
75766;SDS011;64378;55.596;13.014;2023-03-23T06:21:10;7.38;;;1.83;;
75766;SDS011;64378;55.596;13.014;2023-03-23T06:23:36;6.15;;;1.77;;
75766;SDS011;64378;55.596;13.014;2023-03-23T06:26:03;5.50;;;1.70;;
75766;SDS011;64378;55.596;13.014;2023-03-23T06:28:30;4.93;;;1.80;;
75766;SDS011;64378;55.596;13.014;2023-03-23T06:30:58;7.03;;;1.75;;
75766;SDS011;64378;55.596;13.014;2023-03-23T06:33:25;6.03;;;1.58;;
75766;SDS011;64378;55.596;13.014;2023-03-23T06:35:50;6.30;;;1.83;;
75766;SDS011;64378;55.596;13.014;2023-03-23T06:38:16;6.47;;;1.70;;
75766;SDS011;64378;55.596;13.014;2023-03-23T06:40:42;6.37;;;1.70;;
75766;SDS011;64378;55.596;13.014;2023-03-23T06:43:11;8.18;;;1.90;;
75766;SDS011;64378;55.596;13.014;2023-03-23T06:45:36;8.57;;;1.60;;
75766;SDS011;64378;55.596;13.014;2023-03-23T06:48:01;6.63;;;1.70;;
75766;SDS011;64378;55.596;13.014;2023-03-23T06:50:27;7.50;;;1.50;;
75766;SDS011;64378;55.596;13.014;2023-03-23T06:52:53;7.32;;;1.60;;
75766;SDS011;64378;55.596;13.014;2023-03-23T06:55:18;7.17;;;1.47;;
75766;SDS011;64378;55.596;13.014;2023-03-23T06:57:44;6.63;;;1.40;;
75766;SDS011;64378;55.596;13.014;2023-03-23T07:00:10;6.30;;;1.40;;
75766;SDS011;64378;55.596;13.014;2023-03-23T07:02:38;5.97;;;1.23;;
75766;SDS011;64378;55.596;13.014;2023-03-23T07:05:05;6.60;;;1.48;;
75766;SDS011;64378;55.596;13.014;2023-03-23T07:07:32;9.03;;;1.53;;
75766;SDS011;64378;55.596;13.014;2023-03-23T07:09:57;8.90;;;2.08;;
75766;SDS011;64378;55.596;13.014;2023-03-23T07:12:23;10.05;;;2.30;;
75766;SDS011;64378;55.596;13.014;2023-03-23T07:14:48;10.73;;;2.37;;
75766;SDS011;64378;55.596;13.014;2023-03-23T07:17:13;9.90;;;2.73;;
75766;SDS011;64378;55.596;13.014;2023-03-23T07:19:39;12.20;;;2.63;;
75766;SDS011;64378;55.596;13.014;2023-03-23T07:22:06;10.00;;;2.72;;
75766;SDS011;64378;55.596;13.014;2023-03-23T07:24:33;11.07;;;2.80;;
75766;SDS011;64378;55.596;13.014;2023-03-23T07:26:59;13.13;;;4.47;;
75766;SDS011;64378;55.596;13.014;2023-03-23T07:29:25;11.05;;;2.22;;
75766;SDS011;64378;55.596;13.014;2023-03-23T07:31:51;10.65;;;2.33;;
75766;SDS011;64378;55.596;13.014;2023-03-23T07:34:17;11.45;;;2.47;;
75766;SDS011;64378;55.596;13.014;2023-03-23T07:36:44;9.27;;;2.17;;
75766;SDS011;64378;55.596;13.014;2023-03-23T07:39:09;8.90;;;2.10;;
75766;SDS011;64378;55.596;13.014;2023-03-23T07:41:35;11.20;;;2.37;;
75766;SDS011;64378;55.596;13.014;2023-03-23T07:44:00;8.95;;;2.38;;
75766;SDS011;64378;55.596;13.014;2023-03-23T07:46:26;8.23;;;2.00;;
75766;SDS011;64378;55.596;13.014;2023-03-23T07:48:51;11.33;;;2.43;;
75766;SDS011;64378;55.596;13.014;2023-03-23T07:51:17;8.55;;;2.22;;
75766;SDS011;64378;55.596;13.014;2023-03-23T07:53:43;9.17;;;1.83;;
75766;SDS011;64378;55.596;13.014;2023-03-23T07:56:11;7.97;;;2.25;;
75766;SDS011;64378;55.596;13.014;2023-03-23T07:58:39;7.28;;;1.70;;
75766;SDS011;64378;55.596;13.014;2023-03-23T08:01:05;9.47;;;2.07;;
75766;SDS011;64378;55.596;13.014;2023-03-23T08:03:31;8.10;;;1.98;;
75766;SDS011;64378;55.596;13.014;2023-03-23T08:05:57;8.50;;;1.80;;
75766;SDS011;64378;55.596;13.014;2023-03-23T08:08:24;7.90;;;1.77;;
75766;SDS011;64378;55.596;13.014;2023-03-23T08:10:50;8.40;;;2.57;;
75766;SDS011;64378;55.596;13.014;2023-03-23T08:13:16;8.15;;;2.00;;
75766;SDS011;64378;55.596;13.014;2023-03-23T08:15:41;6.20;;;1.80;;
75766;SDS011;64378;55.596;13.014;2023-03-23T08:18:08;7.20;;;1.67;;
75766;SDS011;64378;55.596;13.014;2023-03-23T08:20:34;7.90;;;1.70;;
75766;SDS011;64378;55.596;13.014;2023-03-23T08:23:00;6.57;;;1.70;;
75766;SDS011;64378;55.596;13.014;2023-03-23T08:25:27;7.57;;;2.00;;
75766;SDS011;64378;55.596;13.014;2023-03-23T08:27:56;6.65;;;1.38;;
75766;SDS011;64378;55.596;13.014;2023-03-23T08:30:22;7.35;;;1.50;;
75766;SDS011;64378;55.596;13.014;2023-03-23T08:32:48;6.10;;;1.58;;
75766;SDS011;64378;55.596;13.014;2023-03-23T08:35:15;6.05;;;1.42;;
75766;SDS011;64378;55.596;13.014;2023-03-23T08:37:42;5.73;;;1.37;;
75766;SDS011;64378;55.596;13.014;2023-03-23T08:40:09;5.90;;;1.60;;
75766;SDS011;64378;55.596;13.014;2023-03-23T08:42:37;5.90;;;1.45;;
75766;SDS011;64378;55.596;13.014;2023-03-23T08:45:04;6.10;;;1.40;;
75766;SDS011;64378;55.596;13.014;2023-03-23T08:47:32;5.63;;;1.33;;
75766;SDS011;64378;55.596;13.014;2023-03-23T08:49:57;5.40;;;1.30;;
75766;SDS011;64378;55.596;13.014;2023-03-23T08:52:23;5.10;;;1.20;;
75766;SDS011;64378;55.596;13.014;2023-03-23T08:54:48;4.87;;;1.10;;
75766;SDS011;64378;55.596;13.014;2023-03-23T08:57:14;4.53;;;1.10;;
75766;SDS011;64378;55.596;13.014;2023-03-23T08:59:40;4.35;;;1.17;;
75766;SDS011;64378;55.596;13.014;2023-03-23T09:02:08;5.88;;;1.17;;
75766;SDS011;64378;55.596;13.014;2023-03-23T09:04:36;4.85;;;1.17;;
75766;SDS011;64378;55.596;13.014;2023-03-23T09:07:02;5.00;;;1.20;;
75766;SDS011;64378;55.596;13.014;2023-03-23T09:09:28;4.57;;;1.10;;
75766;SDS011;64378;55.596;13.014;2023-03-23T09:11:53;4.88;;;1.10;;
75766;SDS011;64378;55.596;13.014;2023-03-23T09:14:19;4.77;;;1.20;;
75766;SDS011;64378;55.596;13.014;2023-03-23T09:16:44;4.13;;;0.93;;
75766;SDS011;64378;55.596;13.014;2023-03-23T09:19:10;4.00;;;0.80;;
75766;SDS011;64378;55.596;13.014;2023-03-23T09:21:36;4.78;;;1.08;;
75766;SDS011;64378;55.596;13.014;2023-03-23T09:24:01;5.33;;;1.20;;
75766;SDS011;64378;55.596;13.014;2023-03-23T09:26:27;5.20;;;0.97;;
75766;SDS011;64378;55.596;13.014;2023-03-23T09:28:52;4.13;;;1.00;;
75766;SDS011;64378;55.596;13.014;2023-03-23T09:31:18;4.30;;;1.10;;
75766;SDS011;64378;55.596;13.014;2023-03-23T09:33:47;4.10;;;0.90;;
75766;SDS011;64378;55.596;13.014;2023-03-23T09:36:17;4.05;;;0.90;;
75766;SDS011;64378;55.596;13.014;2023-03-23T09:38:43;3.90;;;1.00;;
75766;SDS011;64378;55.596;13.014;2023-03-23T09:41:27;4.68;;;1.10;;
75766;SDS011;64378;55.596;13.014;2023-03-23T09:47:14;4.70;;;0.80;;
75766;SDS011;64378;55.596;13.014;2023-03-23T09:49:56;3.20;;;0.60;;
75766;SDS011;64378;55.596;13.014;2023-03-23T09:53:09;3.63;;;0.73;;
75766;SDS011;64378;55.596;13.014;2023-03-23T09:55:22;2.70;;;0.70;;
75766;SDS011;64378;55.596;13.014;2023-03-23T10:00:50;3.80;;;0.90;;
75766;SDS011;64378;55.596;13.014;2023-03-23T10:03:24;3.33;;;0.70;;
75766;SDS011;64378;55.596;13.014;2023-03-23T10:05:53;2.78;;;0.70;;
75766;SDS011;64378;55.596;13.014;2023-03-23T10:08:30;3.33;;;0.70;;
75766;SDS011;64378;55.596;13.014;2023-03-23T10:13:52;2.92;;;0.80;;
75766;SDS011;64378;55.596;13.014;2023-03-23T10:16:25;4.22;;;1.00;;
75766;SDS011;64378;55.596;13.014;2023-03-23T10:19:01;3.78;;;0.68;;
75766;SDS011;64378;55.596;13.014;2023-03-23T10:21:35;2.97;;;0.73;;
75766;SDS011;64378;55.596;13.014;2023-03-23T10:24:07;2.83;;;0.70;;
75766;SDS011;64378;55.596;13.014;2023-03-23T10:26:41;4.00;;;0.95;;
75766;SDS011;64378;55.596;13.014;2023-03-23T10:29:29;3.42;;;0.93;;
75766;SDS011;64378;55.596;13.014;2023-03-23T10:39:58;2.93;;;0.60;;
75766;SDS011;64378;55.596;13.014;2023-03-23T10:42:26;3.95;;;0.90;;
75766;SDS011;64378;55.596;13.014;2023-03-23T10:44:53;4.00;;;0.75;;
75766;SDS011;64378;55.596;13.014;2023-03-23T10:47:21;2.42;;;0.63;;
75766;SDS011;64378;55.596;13.014;2023-03-23T10:49:58;3.67;;;0.80;;
75766;SDS011;64378;55.596;13.014;2023-03-23T10:52:34;3.30;;;0.77;;
75766;SDS011;64378;55.596;13.014;2023-03-23T10:57:39;4.35;;;0.90;;
75766;SDS011;64378;55.596;13.014;2023-03-23T11:02:41;2.57;;;0.63;;
75766;SDS011;64378;55.596;13.014;2023-03-23T11:05:18;3.33;;;0.70;;
75766;SDS011;64378;55.596;13.014;2023-03-23T11:07:48;4.18;;;1.02;;
75766;SDS011;64378;55.596;13.014;2023-03-23T11:10:20;3.05;;;0.70;;
75766;SDS011;64378;55.596;13.014;2023-03-23T11:12:52;2.95;;;0.93;;
75766;SDS011;64378;55.596;13.014;2023-03-23T11:15:29;4.35;;;1.42;;
75766;SDS011;64378;55.596;13.014;2023-03-23T11:18:03;3.27;;;1.10;;
75766;SDS011;64378;55.596;13.014;2023-03-23T11:20:34;2.75;;;0.77;;
75766;SDS011;64378;55.596;13.014;2023-03-23T11:23:17;2.72;;;0.82;;
75766;SDS011;64378;55.596;13.014;2023-03-23T11:28:36;3.30;;;0.90;;
75766;SDS011;64378;55.596;13.014;2023-03-23T11:31:07;5.82;;;1.23;;
75766;SDS011;64378;55.596;13.014;2023-03-23T11:33:37;3.33;;;1.00;;
75766;SDS011;64378;55.596;13.014;2023-03-23T11:36:05;3.55;;;1.05;;
75766;SDS011;64378;55.596;13.014;2023-03-23T11:38:33;3.55;;;1.00;;
75766;SDS011;64378;55.596;13.014;2023-03-23T11:41:00;3.60;;;0.77;;
75766;SDS011;64378;55.596;13.014;2023-03-23T11:43:25;2.70;;;0.80;;
75766;SDS011;64378;55.596;13.014;2023-03-23T11:51:41;3.92;;;1.08;;
75766;SDS011;64378;55.596;13.014;2023-03-23T11:54:15;3.13;;;0.85;;
75766;SDS011;64378;55.596;13.014;2023-03-23T11:56:47;3.20;;;0.82;;
75766;SDS011;64378;55.596;13.014;2023-03-23T11:59:13;2.47;;;0.70;;
75766;SDS011;64378;55.596;13.014;2023-03-23T12:02:04;2.80;;;0.70;;
75766;SDS011;64378;55.596;13.014;2023-03-23T12:04:33;2.70;;;0.70;;
75766;SDS011;64378;55.596;13.014;2023-03-23T12:21:13;2.97;;;0.70;;
75766;SDS011;64378;55.596;13.014;2023-03-23T12:27:03;4.25;;;0.70;;
75766;SDS011;64378;55.596;13.014;2023-03-23T12:32:25;2.72;;;0.60;;
75766;SDS011;64378;55.596;13.014;2023-03-23T12:37:40;3.33;;;0.70;;
75766;SDS011;64378;55.596;13.014;2023-03-23T12:43:40;4.32;;;0.80;;
75766;SDS011;64378;55.596;13.014;2023-03-23T12:49:11;5.38;;;1.00;;
75766;SDS011;64378;55.596;13.014;2023-03-23T12:51:57;3.15;;;0.55;;
75766;SDS011;64378;55.596;13.014;2023-03-23T13:00:02;4.32;;;0.70;;
75766;SDS011;64378;55.596;13.014;2023-03-23T13:07:52;5.60;;;0.80;;
75766;SDS011;64378;55.596;13.014;2023-03-23T13:10:28;4.72;;;0.63;;
75766;SDS011;64378;55.596;13.014;2023-03-23T13:12:56;3.72;;;0.80;;
75766;SDS011;64378;55.596;13.014;2023-03-23T13:20:47;4.13;;;0.70;;
75766;SDS011;64378;55.596;13.014;2023-03-23T13:23:19;4.38;;;0.77;;
75766;SDS011;64378;55.596;13.014;2023-03-23T13:25:59;4.28;;;0.88;;
75766;SDS011;64378;55.596;13.014;2023-03-23T13:31:37;5.60;;;1.05;;
75766;SDS011;64378;55.596;13.014;2023-03-23T13:36:58;4.95;;;0.68;;
75766;SDS011;64378;55.596;13.014;2023-03-23T13:39:29;4.33;;;0.77;;
75766;SDS011;64378;55.596;13.014;2023-03-23T13:44:38;4.53;;;0.80;;
75766;SDS011;64378;55.596;13.014;2023-03-23T13:50:01;5.90;;;0.80;;
75766;SDS011;64378;55.596;13.014;2023-03-23T14:00:26;4.57;;;0.88;;
75766;SDS011;64378;55.596;13.014;2023-03-23T14:03:01;6.10;;;1.10;;
75766;SDS011;64378;55.596;13.014;2023-03-23T14:05:34;4.93;;;1.10;;
75766;SDS011;64378;55.596;13.014;2023-03-23T14:08:08;6.13;;;1.17;;
75766;SDS011;64378;55.596;13.014;2023-03-23T14:10:53;6.18;;;1.02;;
75766;SDS011;64378;55.596;13.014;2023-03-23T14:16:01;4.77;;;0.90;;
75766;SDS011;64378;55.596;13.014;2023-03-23T14:18:38;4.60;;;0.70;;
75766;SDS011;64378;55.596;13.014;2023-03-23T14:21:05;6.23;;;1.13;;
75766;SDS011;64378;55.596;13.014;2023-03-23T14:23:38;5.75;;;0.82;;
75766;SDS011;64378;55.596;13.014;2023-03-23T14:26:09;6.43;;;0.90;;
75766;SDS011;64378;55.596;13.014;2023-03-23T14:28:38;5.38;;;0.93;;
75766;SDS011;64378;55.596;13.014;2023-03-23T14:31:14;3.83;;;0.80;;
75766;SDS011;64378;55.596;13.014;2023-03-23T14:33:48;4.30;;;0.75;;
75766;SDS011;64378;55.596;13.014;2023-03-23T14:36:24;7.13;;;1.07;;
75766;SDS011;64378;55.596;13.014;2023-03-23T14:39:35;5.88;;;1.02;;
75766;SDS011;64378;55.596;13.014;2023-03-23T14:41:47;4.85;;;0.90;;
75766;SDS011;64378;55.596;13.014;2023-03-23T14:44:17;5.25;;;0.90;;
75766;SDS011;64378;55.596;13.014;2023-03-23T14:46:47;7.23;;;1.10;;
75766;SDS011;64378;55.596;13.014;2023-03-23T14:49:16;5.03;;;0.88;;
75766;SDS011;64378;55.596;13.014;2023-03-23T14:51:52;6.70;;;1.27;;
75766;SDS011;64378;55.596;13.014;2023-03-23T14:54:23;6.25;;;1.08;;
75766;SDS011;64378;55.596;13.014;2023-03-23T14:56:50;6.22;;;1.15;;
75766;SDS011;64378;55.596;13.014;2023-03-23T14:59:16;5.43;;;1.00;;
75766;SDS011;64378;55.596;13.014;2023-03-23T15:01:41;5.17;;;0.90;;
75766;SDS011;64378;55.596;13.014;2023-03-23T15:06:41;6.07;;;1.05;;
75766;SDS011;64378;55.596;13.014;2023-03-23T15:09:13;5.28;;;0.80;;
75766;SDS011;64378;55.596;13.014;2023-03-23T15:11:40;6.07;;;0.80;;
75766;SDS011;64378;55.596;13.014;2023-03-23T15:14:17;6.85;;;1.38;;
75766;SDS011;64378;55.596;13.014;2023-03-23T15:16:49;7.22;;;0.90;;
75766;SDS011;64378;55.596;13.014;2023-03-23T15:19:41;6.18;;;1.02;;
75766;SDS011;64378;55.596;13.014;2023-03-23T15:24:51;6.60;;;1.05;;
75766;SDS011;64378;55.596;13.014;2023-03-23T15:27:29;6.47;;;1.15;;
75766;SDS011;64378;55.596;13.014;2023-03-23T15:29:57;5.73;;;1.20;;
75766;SDS011;64378;55.596;13.014;2023-03-23T15:32:30;9.57;;;1.20;;
75766;SDS011;64378;55.596;13.014;2023-03-23T15:35:03;5.05;;;1.08;;
75766;SDS011;64378;55.596;13.014;2023-03-23T15:37:38;6.55;;;1.17;;
75766;SDS011;64378;55.596;13.014;2023-03-23T15:40:13;7.88;;;1.40;;
75766;SDS011;64378;55.596;13.014;2023-03-23T15:42:40;6.15;;;1.10;;
75766;SDS011;64378;55.596;13.014;2023-03-23T15:50:18;5.72;;;1.15;;
75766;SDS011;64378;55.596;13.014;2023-03-23T15:52:56;7.45;;;1.20;;
75766;SDS011;64378;55.596;13.014;2023-03-23T15:57:52;5.70;;;1.00;;
75766;SDS011;64378;55.596;13.014;2023-03-23T16:00:20;5.60;;;0.90;;
75766;SDS011;64378;55.596;13.014;2023-03-23T16:02:48;4.90;;;0.80;;
75766;SDS011;64378;55.596;13.014;2023-03-23T16:05:17;6.97;;;1.00;;
75766;SDS011;64378;55.596;13.014;2023-03-23T16:07:42;6.25;;;1.10;;
75766;SDS011;64378;55.596;13.014;2023-03-23T16:10:14;4.57;;;1.00;;
75766;SDS011;64378;55.596;13.014;2023-03-23T16:12:41;9.45;;;1.65;;
75766;SDS011;64378;55.596;13.014;2023-03-23T16:15:06;6.33;;;1.07;;
75766;SDS011;64378;55.596;13.014;2023-03-23T16:17:33;5.97;;;1.00;;
75766;SDS011;64378;55.596;13.014;2023-03-23T16:19:58;7.72;;;1.15;;
75766;SDS011;64378;55.596;13.014;2023-03-23T16:22:24;7.17;;;0.90;;
75766;SDS011;64378;55.596;13.014;2023-03-23T16:24:49;5.33;;;1.03;;
75766;SDS011;64378;55.596;13.014;2023-03-23T16:27:15;5.67;;;1.00;;
75766;SDS011;64378;55.596;13.014;2023-03-23T16:29:41;7.13;;;1.00;;
75766;SDS011;64378;55.596;13.014;2023-03-23T16:32:06;6.10;;;1.00;;
75766;SDS011;64378;55.596;13.014;2023-03-23T16:34:32;4.30;;;0.80;;
75766;SDS011;64378;55.596;13.014;2023-03-23T16:36:59;7.00;;;1.07;;
75766;SDS011;64378;55.596;13.014;2023-03-23T16:39:25;5.63;;;1.00;;
75766;SDS011;64378;55.596;13.014;2023-03-23T16:41:50;9.10;;;1.30;;
75766;SDS011;64378;55.596;13.014;2023-03-23T16:44:16;6.83;;;1.17;;
75766;SDS011;64378;55.596;13.014;2023-03-23T16:46:41;8.10;;;1.40;;
75766;SDS011;64378;55.596;13.014;2023-03-23T16:49:07;6.17;;;1.20;;
75766;SDS011;64378;55.596;13.014;2023-03-23T16:51:32;8.57;;;1.60;;
75766;SDS011;64378;55.596;13.014;2023-03-23T16:53:58;9.00;;;2.03;;
75766;SDS011;64378;55.596;13.014;2023-03-23T16:56:23;8.60;;;2.03;;
75766;SDS011;64378;55.596;13.014;2023-03-23T16:58:48;10.17;;;2.03;;
75766;SDS011;64378;55.596;13.014;2023-03-23T17:01:14;9.30;;;2.30;;